createdAt,value
2023-01-08T10:20:44.542Z,100125.00
2023-01-08T10:23:31.508Z,100123.91
2023-01-08T10:26:31.893Z,100118.47
2023-01-08T10:29:11.616Z,100112.50
2023-01-08T10:32:13.456Z,100107.34
2023-01-08T10:34:44.850Z,100094.22
2023-01-08T10:37:36.948Z,100100.78
2023-01-08T10:40:22.056Z,100096.09
2023-01-08T10:42:50.863Z,100086.41
2023-01-08T10:45:21.650Z,100090.47
2023-01-08T10:47:50.432Z,100082.94
2023-01-08T10:50:23.797Z,100078.56
2023-01-08T10:52:59.687Z,100080.19
2023-01-08T10:55:37.558Z,100079.34
2023-01-08T10:58:14.612Z,100065.25
2023-01-08T11:00:41.192Z,100070.06
2023-01-08T11:03:19.849Z,100069.84
2023-01-08T11:05:46.339Z,100048.94
2023-01-08T11:08:17.858Z,100054.97
2023-01-08T11:10:53.819Z,100047.84
2023-01-08T11:13:20.368Z,100049.78
2023-01-08T11:15:57.409Z,100051.88
2023-01-08T11:18:26.312Z,100053.16
2023-01-08T11:20:54.477Z,100044.88
2023-01-08T11:23:23.681Z,100047.53
2023-01-08T11:26:00.694Z,100040.28
2023-01-08T11:28:39.276Z,100033.56
2023-01-08T11:31:44.257Z,100019.78
2023-01-08T11:34:38.675Z,100008.88
2023-01-08T11:37:14.368Z,100014.53
2023-01-08T11:39:40.915Z,100010.69
2023-01-08T11:42:32.002Z,100001.53
2023-01-08T11:45:17.586Z,100004.00
2023-01-08T11:48:23.597Z,99998.38
2023-01-08T11:51:27.144Z,99985.56
2023-01-08T11:54:21.570Z,99987.38
2023-01-08T11:57:09.617Z,99987.44
2023-01-08T11:59:56.081Z,99981.13
2023-01-08T12:02:59.664Z,99977.47
2023-01-08T12:05:44.979Z,99955.94
2023-01-08T12:08:24.125Z,99949.91
2023-01-08T12:11:20.788Z,99942.22
2023-01-08T12:14:19.035Z,99938.41
2023-01-08T12:17:30.790Z,99936.41
2023-01-08T12:20:36.730Z,99939.81
2023-01-08T12:23:29.286Z,99936.66
2023-01-08T12:26:17.747Z,99939.41
2023-01-08T12:28:58.255Z,99939.53
2023-01-08T12:31:44.135Z,99950.13
2023-01-08T12:34:14.732Z,99950.31
2023-01-08T12:36:54.050Z,99953.50
2023-01-08T12:39:36.563Z,99959.72
2023-01-08T12:42:16.665Z,99956.03
2023-01-08T12:44:45.552Z,99954.31
2023-01-08T12:47:16.919Z,99947.34
2023-01-08T12:49:52.353Z,99937.88
2023-01-08T12:52:37.692Z,99934.41
2023-01-08T12:55:17.638Z,99931.75
2023-01-08T12:57:59.585Z,99927.03
2023-01-08T13:00:33.539Z,99916.88
2023-01-08T13:03:03.190Z,99904.78
2023-01-08T13:05:37.179Z,99910.56
2023-01-08T13:08:06.877Z,99914.28
2023-01-08T13:10:41.629Z,99917.41
2023-01-08T13:13:24.149Z,99907.31
2023-01-08T13:15:50.577Z,99916.50
2023-01-08T13:18:21.614Z,99904.25
2023-01-08T13:20:59.458Z,99895.38
2023-01-08T13:23:28.654Z,99893.69
2023-01-08T13:25:58.397Z,99883.88
2023-01-08T13:28:24.722Z,99894.72
2023-01-08T13:30:51.874Z,99884.47
2023-01-08T13:33:38.083Z,99887.91
2023-01-08T13:36:17.102Z,99881.06
2023-01-08T13:38:45.112Z,99875.13
2023-01-08T13:41:31.774Z,99872.75
2023-01-08T13:44:06.162Z,99868.28
2023-01-08T13:46:37.841Z,99872.25
2023-01-08T13:49:06.639Z,99863.72
2023-01-08T13:51:45.607Z,99858.56
2023-01-08T13:54:11.874Z,99853.44
2023-01-08T13:56:39.813Z,99848.69
2023-01-08T13:59:06.373Z,99844.50
2023-01-08T14:01:32.953Z,99856.28
2023-01-08T14:03:59.367Z,99848.38
2023-01-08T14:06:27.576Z,99847.34
2023-01-08T14:09:05.158Z,99843.91
2023-01-08T14:11:47.056Z,99845.47
2023-01-08T14:14:17.127Z,99843.53
2023-01-08T14:16:44.432Z,99849.34
2023-01-08T14:19:16.773Z,99846.81
2023-01-08T14:21:49.088Z,99843.50
2023-01-08T14:24:17.231Z,99841.19
2023-01-08T14:26:46.806Z,99842.13
2023-01-08T14:29:15.906Z,99839.41
2023-01-08T14:31:47.569Z,99830.25
2023-01-08T14:34:14.840Z,99834.34
2023-01-08T14:36:42.712Z,99827.09
2023-01-08T14:39:21.515Z,99824.69
2023-01-08T14:42:07.917Z,99823.41
2023-01-08T14:44:39.259Z,99816.94
2023-01-08T14:47:18.963Z,99820.75
2023-01-08T14:49:51.937Z,99819.66
2023-01-08T14:52:22.529Z,99808.59
2023-01-08T14:54:53.208Z,99803.47
2023-01-08T14:57:20.359Z,99802.38
2023-01-08T14:59:54.718Z,99810.53
2023-01-08T15:02:36.840Z,99805.69
2023-01-08T15:05:31.134Z,99798.69
2023-01-08T15:08:32.661Z,99791.72
2023-01-08T15:11:18.396Z,99787.97
2023-01-08T15:13:46.975Z,99780.94
2023-01-08T15:16:28.973Z,99779.31
2023-01-08T15:19:07.070Z,99784.22
2023-01-08T15:21:34.731Z,99777.25
2023-01-08T15:24:03.317Z,99779.19
2023-01-08T15:26:29.970Z,99777.38
2023-01-08T15:29:02.344Z,99774.97
2023-01-08T15:31:39.292Z,99776.06
2023-01-08T15:34:08.203Z,99782.88
2023-01-08T15:36:34.770Z,99777.19
2023-01-08T15:39:01.145Z,99773.19
2023-01-08T15:41:54.304Z,99776.16
2023-01-08T15:44:46.726Z,99773.75
2023-01-08T15:47:13.212Z,99770.28
2023-01-08T15:49:39.656Z,99772.22
2023-01-08T15:52:23.318Z,99766.56
2023-01-08T15:55:02.028Z,99767.38
2023-01-08T15:57:30.419Z,99765.81
2023-01-08T15:59:59.119Z,99770.97
2023-01-08T16:03:00.012Z,99764.53
2023-01-08T16:05:28.895Z,99757.25
2023-01-08T16:07:55.316Z,99750.78
2023-01-08T16:10:21.759Z,99751.84
2023-01-08T16:12:52.398Z,99752.69
2023-01-08T16:15:18.778Z,99741.06
2023-01-08T16:17:45.234Z,99741.63
2023-01-08T16:20:13.955Z,99735.16
2023-01-08T16:22:43.477Z,99748.13
2023-01-08T16:25:20.823Z,99737.91
2023-01-08T16:27:47.194Z,99738.47
2023-01-08T16:30:24.468Z,99736.31
2023-01-08T16:32:54.324Z,99734.47
2023-01-08T16:35:33.023Z,99738.25
2023-01-08T16:38:08.354Z,99729.91
2023-01-08T16:40:34.732Z,99736.69
2023-01-08T16:43:04.011Z,99737.47
2023-01-08T16:45:30.464Z,99735.34
2023-01-08T16:47:56.883Z,99735.84
2023-01-08T16:50:23.267Z,99735.06
2023-01-08T16:52:52.121Z,99751.00
2023-01-08T16:55:18.599Z,99749.38
2023-01-08T16:57:45.091Z,99744.81
2023-01-08T17:00:12.034Z,99748.88
2023-01-08T17:02:38.967Z,99746.16
2023-01-08T17:05:06.013Z,99738.59
2023-01-08T17:07:32.389Z,99734.81
2023-01-08T17:09:58.872Z,99730.75
2023-01-08T17:12:25.314Z,99732.38
2023-01-08T17:14:51.876Z,99732.06
2023-01-08T17:17:22.102Z,99718.56
2023-01-08T17:19:56.827Z,99715.88
2023-01-08T17:22:23.233Z,99710.47
2023-01-08T17:24:49.607Z,99703.72
2023-01-08T17:27:18.968Z,99710.72
2023-01-08T17:29:51.546Z,99707.72
2023-01-08T17:32:18.002Z,99695.59
2023-01-08T17:34:44.418Z,99699.91
2023-01-08T17:37:11.485Z,99695.81
2023-01-08T17:39:38.150Z,99694.72
2023-01-08T17:42:24.215Z,99688.22
2023-01-08T17:44:55.470Z,99679.88
2023-01-08T17:47:22.683Z,99677.44
2023-01-08T17:49:54.047Z,99668.22
2023-01-08T17:52:22.120Z,99669.84
2023-01-08T17:54:52.723Z,99662.28
2023-01-08T17:57:20.451Z,99656.88
2023-01-08T17:59:46.982Z,99662.28
2023-01-08T18:02:16.179Z,99650.41
2023-01-08T18:04:44.553Z,99653.41
2023-01-08T18:07:11.305Z,99641.00
2023-01-08T18:09:39.967Z,99636.97
2023-01-08T18:12:07.092Z,99641.28
2023-01-08T18:14:36.068Z,99629.94
2023-01-08T18:17:04.825Z,99635.34
2023-01-08T18:19:31.492Z,99626.69
2023-01-08T18:21:58.363Z,99623.19
2023-01-08T18:24:24.736Z,99626.16
2023-01-08T18:26:51.116Z,99618.34
2023-01-08T18:29:17.475Z,99621.06
2023-01-08T18:31:56.284Z,99615.91
2023-01-08T18:34:42.903Z,99614.31
2023-01-08T18:37:10.478Z,99611.84
2023-01-08T18:39:48.009Z,99597.00
2023-01-08T18:42:26.761Z,99592.97
2023-01-08T18:44:55.383Z,99594.56
2023-01-08T18:47:28.993Z,99584.84
2023-01-08T18:50:02.914Z,99585.13
2023-01-08T18:52:30.392Z,99581.91
2023-01-08T18:54:57.647Z,99573.81
2023-01-08T18:57:36.371Z,99571.66
2023-01-08T19:00:04.784Z,99577.38
2023-01-08T19:02:34.044Z,99571.19
2023-01-08T19:05:00.936Z,99563.09
2023-01-08T19:07:27.728Z,99557.41
2023-01-08T19:09:57.547Z,99561.78
2023-01-08T19:12:27.217Z,99553.94
2023-01-08T19:14:54.692Z,99556.16
2023-01-08T19:17:22.080Z,99554.53
2023-01-08T19:19:48.513Z,99551.56
2023-01-08T19:22:17.719Z,99545.94
2023-01-08T19:24:44.070Z,99549.72
2023-01-08T19:27:12.831Z,99549.19
2023-01-08T19:29:39.250Z,99541.66
2023-01-08T19:32:07.698Z,99546.00
2023-01-08T19:34:34.219Z,99540.63
2023-01-08T19:37:03.590Z,99531.66
2023-01-08T19:39:35.422Z,99528.44
2023-01-08T19:42:20.582Z,99530.03
2023-01-08T19:44:47.060Z,99525.47
2023-01-08T19:47:16.086Z,99523.03
2023-01-08T19:49:48.820Z,99522.75
2023-01-08T19:52:18.414Z,99521.09
2023-01-08T19:54:45.282Z,99514.38
2023-01-08T19:57:11.824Z,99511.91
2023-01-08T19:59:38.301Z,99503.53
2023-01-08T20:02:13.792Z,99505.94
2023-01-08T20:04:42.663Z,99498.94
2023-01-08T20:07:09.912Z,99489.75
2023-01-08T20:09:39.875Z,99483.25
2023-01-08T20:12:06.641Z,99476.25
2023-01-08T20:14:34.252Z,99479.75
2023-01-08T20:17:03.512Z,99478.97
2023-01-08T20:19:30.615Z,99480.56
2023-01-08T20:21:58.970Z,99480.03
2023-01-08T20:24:25.794Z,99477.34
2023-01-08T20:26:52.153Z,99469.25
2023-01-08T20:29:18.615Z,99460.34
2023-01-08T20:31:45.184Z,99468.72
2023-01-08T20:34:15.451Z,99464.38
2023-01-08T20:36:43.779Z,99459.47
2023-01-08T20:39:15.625Z,99462.16
2023-01-08T20:41:50.070Z,99449.19
2023-01-08T20:44:27.587Z,99445.38
2023-01-08T20:47:02.291Z,99455.09
2023-01-08T20:49:29.576Z,99447.00
2023-01-08T20:52:06.355Z,99444.81
2023-01-08T20:54:32.772Z,99438.63
2023-01-08T20:57:02.705Z,99434.00
2023-01-08T20:59:29.553Z,99434.00
2023-01-08T21:01:57.356Z,99434.84
2023-01-08T21:04:24.032Z,99425.41
2023-01-08T21:06:50.479Z,99431.38
2023-01-08T21:09:17.810Z,99427.59
2023-01-08T21:11:53.513Z,99422.28
2023-01-08T21:14:20.094Z,99421.75
2023-01-08T21:16:46.508Z,99417.44
2023-01-08T21:19:14.788Z,99412.63
2023-01-08T21:21:42.717Z,99412.66
2023-01-08T21:24:12.171Z,99401.06
2023-01-08T21:26:39.290Z,99404.06
2023-01-08T21:29:07.908Z,99405.72
2023-01-08T21:31:35.301Z,99393.31
2023-01-08T21:34:03.304Z,99389.00
2023-01-08T21:36:31.881Z,99390.38
2023-01-08T21:39:00.040Z,99392.53
2023-01-08T21:41:46.678Z,99378.84
2023-01-08T21:44:33.699Z,99366.97
2023-01-08T21:47:01.106Z,99375.56
2023-01-08T21:49:28.994Z,99363.97
2023-01-08T21:52:23.677Z,99364.00
2023-01-08T21:54:50.825Z,99354.56
2023-01-08T21:57:27.749Z,99361.56
2023-01-08T21:59:54.919Z,99356.94
2023-01-08T22:02:23.276Z,99353.16
2023-01-08T22:04:50.343Z,99344.78
2023-01-08T22:07:16.980Z,99348.59
2023-01-08T22:09:43.341Z,99344.22
2023-01-08T22:12:09.767Z,99346.63
2023-01-08T22:14:36.435Z,99343.66
2023-01-08T22:17:04.195Z,99344.69
2023-01-08T22:19:30.982Z,99337.88
2023-01-08T22:22:24.056Z,99331.13
2023-01-08T22:24:52.318Z,99333.81
2023-01-08T22:27:19.035Z,99331.63
2023-01-08T22:29:46.779Z,99342.94
2023-01-08T22:32:23.428Z,99339.16
2023-01-08T22:34:54.041Z,99349.44
2023-01-08T22:37:21.809Z,99349.97
2023-01-08T22:39:53.428Z,99355.41
2023-01-08T22:42:24.914Z,99360.28
2023-01-08T22:44:51.302Z,99368.97
2023-01-08T22:47:21.773Z,99372.81
2023-01-08T22:49:56.281Z,99373.38
2023-01-08T22:52:22.654Z,99366.91
2023-01-08T22:54:59.355Z,99361.50
2023-01-08T22:57:25.713Z,99365.56
2023-01-08T22:59:52.255Z,99359.94
2023-01-08T23:02:24.359Z,99362.91
2023-01-08T23:04:51.673Z,99367.53
2023-01-08T23:07:18.943Z,99355.91
2023-01-08T23:09:48.922Z,99362.66
2023-01-08T23:12:17.381Z,99361.03
2023-01-08T23:14:43.758Z,99354.56
2023-01-08T23:17:10.206Z,99354.56
2023-01-08T23:19:37.356Z,99362.13
2023-01-08T23:22:05.279Z,99377.22
2023-01-08T23:24:31.880Z,99375.09
2023-01-08T23:26:58.496Z,99375.88
2023-01-08T23:29:29.438Z,99382.09
2023-01-08T23:32:13.266Z,99381.00
2023-01-08T23:34:39.686Z,99392.91
2023-01-08T23:37:06.154Z,99384.34
2023-01-08T23:39:32.620Z,99389.72
2023-01-08T23:41:59.083Z,99397.56
2023-01-08T23:44:25.645Z,99392.53
2023-01-08T23:47:16.924Z,99388.22
2023-01-08T23:49:43.277Z,99393.09
2023-01-08T23:52:09.691Z,99399.31
2023-01-08T23:54:36.282Z,99393.66
2023-01-08T23:57:13.612Z,99393.97
2023-01-08T23:59:40.104Z,99392.63
